createdAt,value
2019-01-05T00:03:06.383Z,1.90
2019-01-05T00:06:27.420Z,1.93
2019-01-05T00:10:03.709Z,1.70
2019-01-05T00:13:25.641Z,2.00
2019-01-05T00:17:06.978Z,1.90
2019-01-05T00:20:23.496Z,1.83
2019-01-05T00:23:55.358Z,1.83
2019-01-05T00:27:17.032Z,1.87
2019-01-05T00:30:45.793Z,2.10
2019-01-05T00:38:16.920Z,1.73
2019-01-05T00:41:47.517Z,1.77
2019-01-05T00:45:21.486Z,1.63
2019-01-05T00:48:56.897Z,1.63
2019-01-05T00:52:19.620Z,1.43
2019-01-05T00:55:46.419Z,1.63
2019-01-05T00:59:08.008Z,1.33
2019-01-05T01:02:39.876Z,1.60
2019-01-05T01:06:02.850Z,2.00
2019-01-05T01:09:14.651Z,1.50
2019-01-05T01:12:42.002Z,1.47
2019-01-05T01:16:03.413Z,1.87
2019-01-05T01:19:38.706Z,1.37
2019-01-05T01:23:17.513Z,1.30
2019-01-05T01:26:35.895Z,1.40
2019-01-05T01:30:11.758Z,1.50
2019-01-05T01:33:38.279Z,1.40
2019-01-05T01:37:04.208Z,1.77
2019-01-05T01:40:39.501Z,1.57
2019-01-05T01:44:03.597Z,1.37
2019-01-05T01:47:25.975Z,1.30
2019-01-05T01:50:52.219Z,1.50
2019-01-05T01:54:15.174Z,1.70
2019-01-05T01:57:45.200Z,1.50
2019-01-05T02:01:57.399Z,1.33
2019-01-05T02:05:32.553Z,1.30
2019-01-05T02:09:04.488Z,1.40
2019-01-05T02:12:42.696Z,1.50
2019-01-05T02:16:04.975Z,1.40
2019-01-05T02:19:45.764Z,1.40
2019-01-05T02:24:19.810Z,1.37
2019-01-05T02:28:24.757Z,1.40
2019-01-05T02:32:27.622Z,1.47
2019-01-05T02:40:24.791Z,1.47
2019-01-05T02:44:30.102Z,1.30
2019-01-05T02:48:22.809Z,1.23
2019-01-05T02:52:32.142Z,1.20
2019-01-05T02:56:34.023Z,1.10
2019-01-05T03:00:25.585Z,1.17
2019-01-05T03:04:23.463Z,1.20
2019-01-05T03:08:43.462Z,1.17
2019-01-05T03:12:45.019Z,1.10
2019-01-05T03:16:52.862Z,1.20
2019-01-05T03:20:55.541Z,1.20
2019-01-05T03:24:56.941Z,1.20
2019-01-05T03:29:10.414Z,1.20
2019-01-05T03:33:00.252Z,0.90
2019-01-05T03:37:10.864Z,1.20
2019-01-05T03:41:03.941Z,1.00
2019-01-05T03:45:13.260Z,1.27
2019-01-05T03:49:35.032Z,1.10
2019-01-05T03:57:39.390Z,1.30
2019-01-05T04:01:40.685Z,1.10
2019-01-05T04:06:04.602Z,1.00
2019-01-05T04:09:52.524Z,0.90
2019-01-05T04:13:57.079Z,1.00
2019-01-05T04:17:35.829Z,0.90
2019-01-05T04:21:29.461Z,1.13
2019-01-05T04:25:47.194Z,1.03
2019-01-05T04:29:37.433Z,0.93
2019-01-05T04:33:28.663Z,0.80
2019-01-05T04:37:25.766Z,1.13
2019-01-05T04:41:49.269Z,0.87
2019-01-05T04:50:02.870Z,0.97
2019-01-05T04:54:03.841Z,1.00
2019-01-05T04:58:02.113Z,0.97
2019-01-05T05:02:01.919Z,0.83
2019-01-05T05:06:24.460Z,0.77
2019-01-05T05:14:32.489Z,0.97
2019-01-05T05:18:44.637Z,0.80
2019-01-05T05:23:11.963Z,1.00
2019-01-05T05:27:07.832Z,0.70
2019-01-05T05:30:45.179Z,1.00
2019-01-05T05:35:03.418Z,0.60
2019-01-05T05:43:09.048Z,0.70
2019-01-05T05:47:26.957Z,0.77
2019-01-05T05:51:31.687Z,0.90
2019-01-05T05:55:26.082Z,0.80
2019-01-05T06:00:03.424Z,0.97
2019-01-05T06:03:43.798Z,0.80
2019-01-05T06:07:58.328Z,0.90
2019-01-05T06:11:53.541Z,0.70
2019-01-05T06:20:21.526Z,0.67
2019-01-05T06:24:18.990Z,0.70
2019-01-05T06:28:21.462Z,0.90
2019-01-05T06:32:23.630Z,0.80
2019-01-05T06:36:24.433Z,0.90
2019-01-05T06:40:14.528Z,0.50
2019-01-05T06:44:39.853Z,0.87
2019-01-05T06:48:48.179Z,0.67
2019-01-05T06:52:55.421Z,0.60
2019-01-05T06:56:59.579Z,0.70
2019-01-05T07:00:56.377Z,0.97
2019-01-05T07:05:13.471Z,0.60
2019-01-05T07:09:21.535Z,0.70
2019-01-05T07:13:05.387Z,0.53
2019-01-05T07:21:07.270Z,0.70
2019-01-05T07:25:12.832Z,0.63
2019-01-05T07:29:20.254Z,0.80
2019-01-05T07:33:15.880Z,0.70
2019-01-05T07:37:20.703Z,0.70
2019-01-05T07:41:07.660Z,0.70
2019-01-05T07:45:26.054Z,0.87
2019-01-05T07:49:25.414Z,0.90
2019-01-05T07:53:32.993Z,0.70
2019-01-05T07:57:24.017Z,0.77
2019-01-05T08:01:23.356Z,0.80
2019-01-05T08:05:25.711Z,0.70
2019-01-05T08:09:40.491Z,0.60
2019-01-05T08:13:43.496Z,0.80
2019-01-05T08:17:44.597Z,0.70
2019-01-05T08:21:56.355Z,0.70
2019-01-05T08:29:58.329Z,0.80
2019-01-05T08:34:20.571Z,0.67
2019-01-05T08:38:15.128Z,0.60
2019-01-05T08:41:59.283Z,0.70
2019-01-05T08:46:05.003Z,0.90
2019-01-05T08:50:12.592Z,1.00
2019-01-05T08:54:14.781Z,1.07
2019-01-05T08:58:15.753Z,1.20
2019-01-05T09:06:27.435Z,1.20
2019-01-05T09:10:13.430Z,1.00
2019-01-05T09:14:28.201Z,1.40
2019-01-05T09:18:13.026Z,1.27
2019-01-05T09:22:33.104Z,1.33
2019-01-05T09:26:36.671Z,1.20
2019-01-05T09:30:44.055Z,1.20
2019-01-05T09:35:09.376Z,1.17
2019-01-05T09:39:22.403Z,1.47
2019-01-05T09:43:23.104Z,1.47
2019-01-05T09:47:31.991Z,1.23
2019-01-05T09:51:30.126Z,1.33
2019-01-05T09:55:34.405Z,1.37
2019-01-05T09:59:53.096Z,1.47
2019-01-05T10:03:55.974Z,1.17
2019-01-05T10:07:51.761Z,1.40
2019-01-05T10:11:32.694Z,1.40
2019-01-05T10:15:39.510Z,1.40
2019-01-05T10:19:31.213Z,1.53
2019-01-05T10:23:17.926Z,1.20
2019-01-05T10:27:17.076Z,1.20
2019-01-05T10:31:20.096Z,1.60
2019-01-05T10:35:26.468Z,1.87
2019-01-05T10:39:27.972Z,1.60
2019-01-05T10:43:18.188Z,2.10
2019-01-05T10:47:18.206Z,1.93
2019-01-05T10:51:24.304Z,2.33
2019-01-05T10:55:50.198Z,2.20
2019-01-05T11:00:07.514Z,2.30
2019-01-05T11:04:06.045Z,2.23
2019-01-05T11:08:21.794Z,2.40
2019-01-05T11:12:19.016Z,2.23
2019-01-05T11:16:10.606Z,2.20
2019-01-05T11:20:26.426Z,2.20
2019-01-05T11:24:22.580Z,3.03
2019-01-05T11:28:21.285Z,2.27
2019-01-05T11:32:10.352Z,2.37
2019-01-05T11:36:10.070Z,3.00
2019-01-05T11:40:12.443Z,2.33
2019-01-05T11:44:08.734Z,2.20
2019-01-05T11:48:09.311Z,2.03
2019-01-05T11:52:02.668Z,2.37
2019-01-05T11:56:15.840Z,2.30
2019-01-05T12:00:19.745Z,2.40
2019-01-05T12:04:22.622Z,2.50
2019-01-05T12:08:32.782Z,2.27
2019-01-05T12:12:34.288Z,2.30
2019-01-05T12:16:22.556Z,2.20
2019-01-05T12:20:25.269Z,2.30
2019-01-05T12:24:32.836Z,2.50
2019-01-05T12:28:34.251Z,2.50
2019-01-05T12:32:51.320Z,1.93
2019-01-05T12:37:00.807Z,2.37
2019-01-05T12:41:03.953Z,2.40
2019-01-05T12:45:13.900Z,2.33
2019-01-05T12:53:44.404Z,2.23
2019-01-05T12:57:42.223Z,2.50
2019-01-05T13:01:43.780Z,2.03
2019-01-05T13:05:45.111Z,2.67
2019-01-05T13:09:26.186Z,2.43
2019-01-05T13:16:41.689Z,2.40
2019-01-05T13:20:27.877Z,2.10
2019-01-05T13:24:25.652Z,2.57
2019-01-05T13:28:40.186Z,2.40
2019-01-05T13:32:49.445Z,2.50
2019-01-05T13:36:57.423Z,3.10
2019-01-05T13:40:51.090Z,2.63
2019-01-05T13:48:56.286Z,3.00
2019-01-05T13:52:39.231Z,2.93
2019-01-05T13:56:18.161Z,2.73
2019-01-05T13:59:35.766Z,2.53
2019-01-05T14:02:58.727Z,3.10
2019-01-05T14:06:49.674Z,2.90
2019-01-05T14:10:10.886Z,3.20
2019-01-05T14:13:35.883Z,2.90
2019-01-05T14:16:51.390Z,3.07
2019-01-05T14:20:13.556Z,2.93
2019-01-05T14:23:48.521Z,2.77
2019-01-05T14:27:18.209Z,3.00
2019-01-05T14:30:52.615Z,3.17
2019-01-05T14:34:23.502Z,3.03
2019-01-05T14:38:01.781Z,2.97
2019-01-05T14:41:49.743Z,3.03
2019-01-05T14:45:11.021Z,3.47
2019-01-05T14:48:32.798Z,2.93
2019-01-05T14:51:59.100Z,2.80
2019-01-05T14:58:31.742Z,3.43
2019-01-05T15:05:25.992Z,3.20
2019-01-05T15:08:56.095Z,3.97
2019-01-05T15:12:17.826Z,3.40
2019-01-05T15:15:39.354Z,3.23
2019-01-05T15:19:01.029Z,3.30
2019-01-05T15:22:24.922Z,3.10
2019-01-05T15:25:46.787Z,3.07
2019-01-05T15:29:31.785Z,3.43
2019-01-05T15:32:53.722Z,3.33
2019-01-05T15:36:15.124Z,3.43
2019-01-05T15:39:38.151Z,3.70
2019-01-05T15:43:10.095Z,3.63
2019-01-05T15:46:31.828Z,3.87
2019-01-05T15:50:07.165Z,3.70
2019-01-05T15:53:35.873Z,3.93
2019-01-05T15:56:57.517Z,3.37
2019-01-05T16:00:19.144Z,3.20
2019-01-05T16:03:44.748Z,3.27
2019-01-05T16:07:23.991Z,3.47
2019-01-05T16:10:45.841Z,3.70
2019-01-05T16:14:11.950Z,3.90
2019-01-05T16:17:38.584Z,3.80
2019-01-05T16:20:56.663Z,3.33
2019-01-05T16:24:27.509Z,3.57
2019-01-05T16:28:01.359Z,3.50
2019-01-05T16:31:30.264Z,3.73
2019-01-05T16:35:05.472Z,3.20
2019-01-05T16:38:32.938Z,3.60
2019-01-05T16:42:24.077Z,3.67
2019-01-05T16:46:06.150Z,3.47
2019-01-05T16:49:47.855Z,3.67
2019-01-05T16:53:32.157Z,3.77
2019-01-05T16:56:53.732Z,4.10
2019-01-05T17:00:15.360Z,3.60
2019-01-05T17:03:38.541Z,3.47
2019-01-05T17:07:05.430Z,4.10
2019-01-05T17:10:27.129Z,3.60
2019-01-05T17:14:06.461Z,3.97
2019-01-05T17:17:38.107Z,3.23
2019-01-05T17:21:33.717Z,3.50
2019-01-05T17:24:57.786Z,4.10
2019-01-05T17:28:31.410Z,4.07
2019-01-05T17:31:53.820Z,3.50
2019-01-05T17:35:10.744Z,3.53
2019-01-05T17:38:48.562Z,3.57
2019-01-05T17:42:19.148Z,3.30
2019-01-05T17:45:47.985Z,3.40
2019-01-05T17:49:19.512Z,3.50
2019-01-05T17:52:43.003Z,3.07
2019-01-05T17:56:04.874Z,3.20
2019-01-05T17:59:26.411Z,3.60
2019-01-05T18:02:48.318Z,2.97
2019-01-05T18:06:26.667Z,3.10
2019-01-05T18:09:53.472Z,3.47
2019-01-05T18:13:19.173Z,2.83
2019-01-05T18:16:51.207Z,3.40
2019-01-05T18:20:08.475Z,2.80
2019-01-05T18:23:30.458Z,3.33
2019-01-05T18:26:48.181Z,2.80
2019-01-05T18:30:11.116Z,3.63
2019-01-05T18:33:41.755Z,3.40
2019-01-05T18:37:04.419Z,3.50
2019-01-05T18:40:45.650Z,3.13
2019-01-05T18:44:14.568Z,3.20
2019-01-05T18:47:56.394Z,3.00
2019-01-05T18:51:18.261Z,3.10
2019-01-05T18:54:56.244Z,3.23
2019-01-05T18:58:18.943Z,3.57
2019-01-05T19:01:56.225Z,2.80
2019-01-05T19:05:41.527Z,3.30
2019-01-05T19:09:13.580Z,3.53
2019-01-05T19:12:33.319Z,3.70
2019-01-05T19:15:57.225Z,3.00
2019-01-05T19:19:18.892Z,3.50
2019-01-05T19:22:53.708Z,3.30
2019-01-05T19:26:19.355Z,3.20
2019-01-05T19:29:57.972Z,4.07
2019-01-05T19:33:19.869Z,3.93
2019-01-05T19:36:42.576Z,3.17
2019-01-05T19:40:17.955Z,3.43
2019-01-05T19:43:53.877Z,3.23
2019-01-05T19:47:24.739Z,3.43
2019-01-05T19:51:21.987Z,3.50
2019-01-05T19:54:49.554Z,3.20
2019-01-05T19:58:19.602Z,3.40
2019-01-05T20:01:50.013Z,3.37
2019-01-05T20:05:19.174Z,3.63
2019-01-05T20:08:54.831Z,3.87
2019-01-05T20:12:20.617Z,3.90
2019-01-05T20:15:49.711Z,3.50
2019-01-05T20:19:22.240Z,3.60
2019-01-05T20:22:52.901Z,3.33
2019-01-05T20:26:14.332Z,4.50
2019-01-05T20:29:35.999Z,3.77
2019-01-05T20:33:08.671Z,3.10
2019-01-05T20:36:40.440Z,3.90
2019-01-05T20:40:02.501Z,4.07
2019-01-05T20:43:21.018Z,3.70
2019-01-05T20:46:43.799Z,4.00
2019-01-05T20:50:15.817Z,3.77
2019-01-05T20:53:38.135Z,3.70
2019-01-05T20:57:14.243Z,3.70
2019-01-05T21:01:14.004Z,3.87
2019-01-05T21:04:37.404Z,3.87
2019-01-05T21:08:03.215Z,3.73
2019-01-05T21:11:24.876Z,3.53
2019-01-05T21:14:55.726Z,3.50
2019-01-05T21:18:17.651Z,3.60
2019-01-05T21:21:46.892Z,3.57
2019-01-05T21:25:15.868Z,3.50
2019-01-05T21:28:54.189Z,3.60
2019-01-05T21:32:32.924Z,3.73
2019-01-05T21:36:07.988Z,4.10
2019-01-05T21:39:42.714Z,3.50
2019-01-05T21:43:09.229Z,3.93
2019-01-05T21:46:54.202Z,3.57
2019-01-05T21:50:20.307Z,3.50
2019-01-05T21:53:42.739Z,4.23
2019-01-05T21:57:08.257Z,3.90
2019-01-05T22:00:35.207Z,4.00
2019-01-05T22:03:57.036Z,3.60
2019-01-05T22:07:18.621Z,3.80
2019-01-05T22:11:00.035Z,3.97
2019-01-05T22:14:21.359Z,3.73
2019-01-05T22:17:42.945Z,3.97
2019-01-05T22:20:59.390Z,4.13
2019-01-05T22:24:21.004Z,4.00
2019-01-05T22:28:13.645Z,3.47
2019-01-05T22:31:45.599Z,3.97
2019-01-05T22:35:22.597Z,3.57
2019-01-05T22:38:51.538Z,3.97
2019-01-05T22:42:14.444Z,3.60
2019-01-05T22:45:30.103Z,3.83
2019-01-05T22:48:51.925Z,3.87
2019-01-05T22:52:16.661Z,4.03
2019-01-05T22:55:48.663Z,3.90
2019-01-05T22:59:15.284Z,3.97
2019-01-05T23:02:40.963Z,4.20
2019-01-05T23:06:03.631Z,4.00
2019-01-05T23:09:25.589Z,4.33
2019-01-05T23:12:59.710Z,4.40
2019-01-05T23:16:37.809Z,4.20
2019-01-05T23:20:00.271Z,3.90
2019-01-05T23:23:22.171Z,4.27
2019-01-05T23:26:51.196Z,4.03
2019-01-05T23:30:20.192Z,4.47
2019-01-05T23:33:35.362Z,3.80
2019-01-05T23:36:56.927Z,4.30
2019-01-05T23:40:29.415Z,4.23
2019-01-05T23:44:06.720Z,3.80
2019-01-05T23:47:33.291Z,4.03
2019-01-05T23:50:58.945Z,3.67
2019-01-05T23:54:35.778Z,4.00
2019-01-05T23:57:53.799Z,3.67
